Terminal Aerodrome Forecast
Issued by NWS

Home | Current Version | Previous Version | Text Only | Print | Product List | Glossary On
Versions: 1 2 3 4 5 6 7 8 9 10 11 12 13 14 15 16 17 18 19 20 21 22 23 24 25 26 27 28 29 30 31 32
000
FTUS42 KRAH 012224 AAA
TAFRWI
TAF AMD
KRWI 012224Z 0122/0218 18010KT P6SM SCT025 BKN250
      TEMPO 0122/0124 BKN020
     FM020700 20007KT P6SM OVC005
     FM021600 22012KT P6SM SCT018=

USA.gov is the U.S. government's official web portal to all federal, state and local government web resources and services.